sensor_id;sensor_type;location;lat;lon;timestamp;pressure;altitude;pressure_sealevel;temperature;humidity
10310;BME280;5200;43.236;27.986;2022-12-10T00:01:35;99553.09;;;11.27;100.00
10310;BME280;5200;43.236;27.986;2022-12-10T00:04:03;99556.88;;;11.25;100.00
10310;BME280;5200;43.236;27.986;2022-12-10T00:06:32;99530.53;;;11.07;100.00
10310;BME280;5200;43.236;27.986;2022-12-10T00:09:02;99558.50;;;11.26;100.00
10310;BME280;5200;43.236;27.986;2022-12-10T00:11:29;99532.22;;;11.08;100.00
10310;BME280;5200;43.236;27.986;2022-12-10T00:13:57;99560.91;;;11.19;100.00
10310;BME280;5200;43.236;27.986;2022-12-10T00:16:25;99557.91;;;11.14;100.00
10310;BME280;5200;43.236;27.986;2022-12-10T00:18:53;99546.72;;;11.12;100.00
10310;BME280;5200;43.236;27.986;2022-12-10T00:21:23;99522.28;;;11.02;100.00
10310;BME280;5200;43.236;27.986;2022-12-10T00:23:51;99518.28;;;10.97;100.00
10310;BME280;5200;43.236;27.986;2022-12-10T00:26:21;99532.50;;;11.05;100.00
10310;BME280;5200;43.236;27.986;2022-12-10T00:28:48;99533.84;;;11.09;100.00
10310;BME280;5200;43.236;27.986;2022-12-10T00:31:17;99545.56;;;11.14;100.00
10310;BME280;5200;43.236;27.986;2022-12-10T00:33:45;99519.66;;;11.02;100.00
10310;BME280;5200;43.236;27.986;2022-12-10T00:36:14;99537.84;;;11.13;100.00
10310;BME280;5200;43.236;27.986;2022-12-10T00:38:41;99531.75;;;11.12;100.00
10310;BME280;5200;43.236;27.986;2022-12-10T00:41:10;99530.09;;;11.11;100.00
10310;BME280;5200;43.236;27.986;2022-12-10T00:43:39;99509.44;;;10.98;100.00
10310;BME280;5200;43.236;27.986;2022-12-10T00:46:06;99525.59;;;11.04;100.00
10310;BME280;5200;43.236;27.986;2022-12-10T00:48:33;99526.28;;;11.06;100.00
10310;BME280;5200;43.236;27.986;2022-12-10T00:51:02;99516.34;;;10.99;100.00
10310;BME280;5200;43.236;27.986;2022-12-10T00:53:31;99490.19;;;10.80;100.00
10310;BME280;5200;43.236;27.986;2022-12-10T00:55:59;99509.03;;;10.93;100.00
10310;BME280;5200;43.236;27.986;2022-12-10T00:58:27;99503.41;;;10.88;100.00
10310;BME280;5200;43.236;27.986;2022-12-10T01:01:06;99494.78;;;10.78;100.00
10310;BME280;5200;43.236;27.986;2022-12-10T01:03:33;99489.38;;;10.79;100.00
10310;BME280;5200;43.236;27.986;2022-12-10T01:06:07;99479.94;;;10.77;100.00
10310;BME280;5200;43.236;27.986;2022-12-10T01:08:35;99517.09;;;10.92;100.00
10310;BME280;5200;43.236;27.986;2022-12-10T01:11:02;99508.53;;;10.90;100.00
10310;BME280;5200;43.236;27.986;2022-12-10T01:13:29;99474.50;;;10.70;100.00
10310;BME280;5200;43.236;27.986;2022-12-10T01:15:59;99474.31;;;10.72;100.00
10310;BME280;5200;43.236;27.986;2022-12-10T01:18:26;99495.75;;;10.77;100.00
10310;BME280;5200;43.236;27.986;2022-12-10T01:20:53;99490.72;;;10.66;100.00
10310;BME280;5200;43.236;27.986;2022-12-10T01:23:20;99465.91;;;10.50;100.00
10310;BME280;5200;43.236;27.986;2022-12-10T01:25:47;99497.41;;;10.60;100.00
10310;BME280;5200;43.236;27.986;2022-12-10T01:28:14;99476.06;;;10.45;100.00
10310;BME280;5200;43.236;27.986;2022-12-10T01:30:41;99486.44;;;10.47;100.00
10310;BME280;5200;43.236;27.986;2022-12-10T01:33:09;99461.19;;;10.36;100.00
10310;BME280;5200;43.236;27.986;2022-12-10T01:35:36;99479.88;;;10.51;100.00
10310;BME280;5200;43.236;27.986;2022-12-10T01:38:03;99471.47;;;10.47;100.00
10310;BME280;5200;43.236;27.986;2022-12-10T01:40:30;99472.75;;;10.43;100.00
10310;BME280;5200;43.236;27.986;2022-12-10T01:42:57;99453.97;;;10.38;100.00
10310;BME280;5200;43.236;27.986;2022-12-10T01:45:24;99468.84;;;10.47;100.00
10310;BME280;5200;43.236;27.986;2022-12-10T01:47:50;99425.00;;;10.20;100.00
10310;BME280;5200;43.236;27.986;2022-12-10T01:50:19;99450.28;;;10.31;100.00
10310;BME280;5200;43.236;27.986;2022-12-10T01:52:46;99431.25;;;10.19;100.00
10310;BME280;5200;43.236;27.986;2022-12-10T01:55:43;99457.78;;;10.44;100.00
10310;BME280;5200;43.236;27.986;2022-12-10T01:58:12;99445.09;;;10.39;100.00
10310;BME280;5200;43.236;27.986;2022-12-10T02:00:50;99449.41;;;10.40;100.00
10310;BME280;5200;43.236;27.986;2022-12-10T02:03:23;99427.03;;;10.26;100.00
10310;BME280;5200;43.236;27.986;2022-12-10T02:06:00;99417.28;;;10.19;100.00
10310;BME280;5200;43.236;27.986;2022-12-10T02:08:35;99413.16;;;10.16;100.00
10310;BME280;5200;43.236;27.986;2022-12-10T02:11:13;99418.41;;;10.16;100.00
10310;BME280;5200;43.236;27.986;2022-12-10T02:13:45;99426.22;;;10.26;100.00
10310;BME280;5200;43.236;27.986;2022-12-10T02:16:18;99440.44;;;10.33;100.00
10310;BME280;5200;43.236;27.986;2022-12-10T02:18:50;99435.47;;;10.30;100.00
10310;BME280;5200;43.236;27.986;2022-12-10T02:21:23;99437.41;;;10.28;100.00
10310;BME280;5200;43.236;27.986;2022-12-10T02:23:56;99432.22;;;10.18;100.00
10310;BME280;5200;43.236;27.986;2022-12-10T02:26:29;99416.22;;;10.11;100.00
10310;BME280;5200;43.236;27.986;2022-12-10T02:29:10;99418.53;;;10.14;100.00
10310;BME280;5200;43.236;27.986;2022-12-10T02:31:40;99437.56;;;10.26;100.00
10310;BME280;5200;43.236;27.986;2022-12-10T02:34:10;99400.97;;;10.15;100.00
10310;BME280;5200;43.236;27.986;2022-12-10T02:36:39;99400.16;;;10.14;100.00
10310;BME280;5200;43.236;27.986;2022-12-10T02:39:11;99435.88;;;10.35;100.00
10310;BME280;5200;43.236;27.986;2022-12-10T02:41:41;99393.53;;;10.10;100.00
10310;BME280;5200;43.236;27.986;2022-12-10T02:44:11;99403.53;;;10.25;100.00
10310;BME280;5200;43.236;27.986;2022-12-10T02:46:41;99435.25;;;10.41;100.00
10310;BME280;5200;43.236;27.986;2022-12-10T02:49:12;99416.84;;;10.41;100.00
10310;BME280;5200;43.236;27.986;2022-12-10T02:51:40;99423.47;;;10.45;100.00
10310;BME280;5200;43.236;27.986;2022-12-10T02:54:34;99419.56;;;10.49;100.00
10310;BME280;5200;43.236;27.986;2022-12-10T02:57:11;99385.91;;;10.35;100.00
10310;BME280;5200;43.236;27.986;2022-12-10T02:59:55;99410.09;;;10.56;100.00
10310;BME280;5200;43.236;27.986;2022-12-10T03:02:30;99381.69;;;10.42;100.00
10310;BME280;5200;43.236;27.986;2022-12-10T03:05:03;99396.75;;;10.58;100.00
10310;BME280;5200;43.236;27.986;2022-12-10T03:07:34;99399.94;;;10.62;100.00
10310;BME280;5200;43.236;27.986;2022-12-10T03:10:04;99383.16;;;10.63;100.00
10310;BME280;5200;43.236;27.986;2022-12-10T03:12:38;99388.84;;;10.76;100.00
10310;BME280;5200;43.236;27.986;2022-12-10T03:15:09;99398.78;;;10.82;100.00
10310;BME280;5200;43.236;27.986;2022-12-10T03:17:38;99380.06;;;10.67;100.00
10310;BME280;5200;43.236;27.986;2022-12-10T03:20:07;99401.09;;;10.85;100.00
10310;BME280;5200;43.236;27.986;2022-12-10T03:22:37;99367.59;;;10.69;100.00
10310;BME280;5200;43.236;27.986;2022-12-10T03:25:06;99411.00;;;10.91;100.00
10310;BME280;5200;43.236;27.986;2022-12-10T03:27:34;99412.78;;;10.91;100.00
10310;BME280;5200;43.236;27.986;2022-12-10T03:30:05;99404.22;;;10.89;100.00
10310;BME280;5200;43.236;27.986;2022-12-10T03:32:33;99402.59;;;10.88;100.00
10310;BME280;5200;43.236;27.986;2022-12-10T03:35:01;99375.56;;;10.77;100.00
10310;BME280;5200;43.236;27.986;2022-12-10T03:37:29;99403.63;;;10.95;100.00
10310;BME280;5200;43.236;27.986;2022-12-10T03:39:56;99397.53;;;10.94;100.00
10310;BME280;5200;43.236;27.986;2022-12-10T03:42:24;99387.59;;;10.88;100.00
10310;BME280;5200;43.236;27.986;2022-12-10T03:44:51;99357.63;;;10.81;100.00
10310;BME280;5200;43.236;27.986;2022-12-10T03:47:19;99372.97;;;10.86;100.00
10310;BME280;5200;43.236;27.986;2022-12-10T03:49:47;99386.66;;;10.89;100.00
10310;BME280;5200;43.236;27.986;2022-12-10T03:52:14;99379.03;;;10.86;100.00
10310;BME280;5200;43.236;27.986;2022-12-10T03:54:41;99380.50;;;10.81;100.00
10310;BME280;5200;43.236;27.986;2022-12-10T03:57:08;99378.84;;;10.79;100.00
10310;BME280;5200;43.236;27.986;2022-12-10T03:59:35;99337.34;;;10.47;100.00
10310;BME280;5200;43.236;27.986;2022-12-10T04:02:02;99362.31;;;10.69;100.00
10310;BME280;5200;43.236;27.986;2022-12-10T04:04:29;99354.91;;;10.65;100.00
10310;BME280;5200;43.236;27.986;2022-12-10T04:06:57;99333.22;;;10.45;100.00
10310;BME280;5200;43.236;27.986;2022-12-10T04:09:24;99339.63;;;10.42;100.00
10310;BME280;5200;43.236;27.986;2022-12-10T04:11:55;99362.56;;;10.58;100.00
10310;BME280;5200;43.236;27.986;2022-12-10T04:14:22;99357.63;;;10.55;100.00
10310;BME280;5200;43.236;27.986;2022-12-10T04:17:06;99336.00;;;10.43;100.00
10310;BME280;5200;43.236;27.986;2022-12-10T04:19:33;99332.25;;;10.46;100.00
10310;BME280;5200;43.236;27.986;2022-12-10T04:22:02;99363.47;;;10.67;100.00
10310;BME280;5200;43.236;27.986;2022-12-10T04:24:46;99355.63;;;10.75;100.00
10310;BME280;5200;43.236;27.986;2022-12-10T04:27:32;99352.09;;;10.84;100.00
10310;BME280;5200;43.236;27.986;2022-12-10T04:30:00;99308.28;;;10.75;100.00
10310;BME280;5200;43.236;27.986;2022-12-10T04:32:28;99352.09;;;11.18;100.00
10310;BME280;5200;43.236;27.986;2022-12-10T04:34:55;99340.28;;;11.31;100.00
10310;BME280;5200;43.236;27.986;2022-12-10T04:37:24;99348.38;;;11.37;100.00
10310;BME280;5200;43.236;27.986;2022-12-10T04:39:52;99358.63;;;11.49;100.00
10310;BME280;5200;43.236;27.986;2022-12-10T04:42:20;99328.94;;;11.30;100.00
10310;BME280;5200;43.236;27.986;2022-12-10T04:44:47;99365.25;;;11.53;100.00
10310;BME280;5200;43.236;27.986;2022-12-10T04:47:15;99352.53;;;11.48;100.00
10310;BME280;5200;43.236;27.986;2022-12-10T04:49:41;99361.59;;;11.54;100.00
10310;BME280;5200;43.236;27.986;2022-12-10T04:52:11;99337.56;;;11.49;100.00
10310;BME280;5200;43.236;27.986;2022-12-10T04:54:39;99320.75;;;11.41;100.00
10310;BME280;5200;43.236;27.986;2022-12-10T04:57:07;99360.31;;;11.66;100.00
10310;BME280;5200;43.236;27.986;2022-12-10T04:59:34;99370.22;;;11.72;100.00
10310;BME280;5200;43.236;27.986;2022-12-10T05:02:02;99382.59;;;11.80;100.00
10310;BME280;5200;43.236;27.986;2022-12-10T05:04:28;99365.16;;;11.79;100.00
10310;BME280;5200;43.236;27.986;2022-12-10T05:06:55;99356.53;;;11.69;100.00
10310;BME280;5200;43.236;27.986;2022-12-10T05:09:22;99376.19;;;11.82;100.00
10310;BME280;5200;43.236;27.986;2022-12-10T05:11:50;99371.06;;;11.73;100.00
10310;BME280;5200;43.236;27.986;2022-12-10T05:14:17;99353.75;;;11.62;100.00
10310;BME280;5200;43.236;27.986;2022-12-10T05:16:44;99368.09;;;11.68;100.00
10310;BME280;5200;43.236;27.986;2022-12-10T05:19:11;99379.09;;;11.63;100.00
10310;BME280;5200;43.236;27.986;2022-12-10T05:21:38;99350.22;;;11.45;100.00
10310;BME280;5200;43.236;27.986;2022-12-10T05:24:23;99381.06;;;11.61;100.00
10310;BME280;5200;43.236;27.986;2022-12-10T05:26:51;99362.09;;;11.49;100.00
10310;BME280;5200;43.236;27.986;2022-12-10T05:29:18;99384.88;;;11.67;100.00
10310;BME280;5200;43.236;27.986;2022-12-10T05:31:45;99389.34;;;11.74;100.00
10310;BME280;5200;43.236;27.986;2022-12-10T05:34:12;99389.69;;;11.79;100.00
10310;BME280;5200;43.236;27.986;2022-12-10T05:36:40;99383.63;;;11.87;100.00
10310;BME280;5200;43.236;27.986;2022-12-10T05:39:07;99379.22;;;11.88;100.00
10310;BME280;5200;43.236;27.986;2022-12-10T05:41:36;99370.75;;;11.84;100.00
10310;BME280;5200;43.236;27.986;2022-12-10T05:44:05;99387.47;;;11.93;100.00
10310;BME280;5200;43.236;27.986;2022-12-10T05:46:33;99387.47;;;11.93;100.00
10310;BME280;5200;43.236;27.986;2022-12-10T05:49:02;99371.25;;;11.79;100.00
10310;BME280;5200;43.236;27.986;2022-12-10T05:51:31;99374.50;;;11.73;100.00
10310;BME280;5200;43.236;27.986;2022-12-10T05:53:58;99399.97;;;11.91;100.00
10310;BME280;5200;43.236;27.986;2022-12-10T05:56:26;99402.94;;;11.88;100.00
10310;BME280;5200;43.236;27.986;2022-12-10T05:58:56;99395.28;;;11.84;100.00
10310;BME280;5200;43.236;27.986;2022-12-10T06:01:27;99386.44;;;11.85;100.00
10310;BME280;5200;43.236;27.986;2022-12-10T06:03:54;99359.50;;;11.66;100.00
10310;BME280;5200;43.236;27.986;2022-12-10T06:06:24;99394.69;;;11.91;100.00
10310;BME280;5200;43.236;27.986;2022-12-10T06:08:51;99384.16;;;11.91;100.00
10310;BME280;5200;43.236;27.986;2022-12-10T06:11:19;99390.44;;;11.98;100.00
10310;BME280;5200;43.236;27.986;2022-12-10T06:13:46;99383.34;;;11.98;100.00
10310;BME280;5200;43.236;27.986;2022-12-10T06:16:14;99379.88;;;11.98;100.00
10310;BME280;5200;43.236;27.986;2022-12-10T06:18:43;99387.50;;;12.09;100.00
10310;BME280;5200;43.236;27.986;2022-12-10T06:21:11;99382.88;;;12.11;100.00
10310;BME280;5200;43.236;27.986;2022-12-10T06:23:39;99379.72;;;12.08;100.00
10310;BME280;5200;43.236;27.986;2022-12-10T06:26:11;99369.19;;;12.08;100.00
10310;BME280;5200;43.236;27.986;2022-12-10T06:28:38;99369.38;;;12.14;100.00
10310;BME280;5200;43.236;27.986;2022-12-10T06:31:06;99387.34;;;12.35;100.00
10310;BME280;5200;43.236;27.986;2022-12-10T06:33:33;99375.00;;;12.27;100.00
10310;BME280;5200;43.236;27.986;2022-12-10T06:36:03;99396.91;;;12.44;100.00
10310;BME280;5200;43.236;27.986;2022-12-10T06:38:30;99387.19;;;12.45;100.00
10310;BME280;5200;43.236;27.986;2022-12-10T06:40:57;99388.81;;;12.46;100.00
10310;BME280;5200;43.236;27.986;2022-12-10T06:43:28;99392.13;;;12.48;100.00
10310;BME280;5200;43.236;27.986;2022-12-10T06:45:55;99388.50;;;12.49;100.00
10310;BME280;5200;43.236;27.986;2022-12-10T06:48:22;99400.53;;;12.60;100.00
10310;BME280;5200;43.236;27.986;2022-12-10T06:50:50;99391.66;;;12.61;100.00
10310;BME280;5200;43.236;27.986;2022-12-10T06:53:20;99385.50;;;12.60;100.00
10310;BME280;5200;43.236;27.986;2022-12-10T06:55:48;99386.50;;;12.67;100.00
10310;BME280;5200;43.236;27.986;2022-12-10T06:58:15;99381.22;;;12.67;100.00
10310;BME280;5200;43.236;27.986;2022-12-10T07:00:41;99414.22;;;12.96;100.00
10310;BME280;5200;43.236;27.986;2022-12-10T07:03:08;99418.66;;;13.04;100.00
10310;BME280;5200;43.236;27.986;2022-12-10T07:05:35;99390.91;;;13.00;100.00
10310;BME280;5200;43.236;27.986;2022-12-10T07:08:02;99389.94;;;13.01;100.00
10310;BME280;5200;43.236;27.986;2022-12-10T07:10:30;99396.34;;;13.15;100.00
10310;BME280;5200;43.236;27.986;2022-12-10T07:12:57;99397.94;;;13.24;100.00
10310;BME280;5200;43.236;27.986;2022-12-10T07:15:25;99398.63;;;13.34;100.00
10310;BME280;5200;43.236;27.986;2022-12-10T07:17:53;99400.09;;;13.37;100.00
10310;BME280;5200;43.236;27.986;2022-12-10T07:20:25;99371.22;;;13.27;100.00
10310;BME280;5200;43.236;27.986;2022-12-10T07:23:07;99401.03;;;13.52;100.00
10310;BME280;5200;43.236;27.986;2022-12-10T07:25:39;99401.16;;;13.59;100.00
10310;BME280;5200;43.236;27.986;2022-12-10T07:28:13;99396.03;;;13.65;100.00
10310;BME280;5200;43.236;27.986;2022-12-10T07:30:40;99394.50;;;13.71;100.00
10310;BME280;5200;43.236;27.986;2022-12-10T07:33:07;99388.88;;;13.74;100.00
10310;BME280;5200;43.236;27.986;2022-12-10T07:35:33;99382.78;;;13.73;100.00
10310;BME280;5200;43.236;27.986;2022-12-10T07:38:00;99389.84;;;13.81;100.00
10310;BME280;5200;43.236;27.986;2022-12-10T07:40:27;99389.03;;;13.81;100.00
10310;BME280;5200;43.236;27.986;2022-12-10T07:42:57;99389.84;;;13.81;100.00
10310;BME280;5200;43.236;27.986;2022-12-10T07:45:24;99385.00;;;13.85;100.00
10310;BME280;5200;43.236;27.986;2022-12-10T07:47:51;99378.56;;;13.87;100.00
10310;BME280;5200;43.236;27.986;2022-12-10T07:50:17;99383.81;;;13.95;100.00
10310;BME280;5200;43.236;27.986;2022-12-10T07:52:44;99384.09;;;14.01;100.00
10310;BME280;5200;43.236;27.986;2022-12-10T07:55:11;99372.47;;;14.10;100.00
10310;BME280;5200;43.236;27.986;2022-12-10T07:57:38;99369.13;;;14.16;100.00
10310;BME280;5200;43.236;27.986;2022-12-10T08:00:08;99354.72;;;14.19;100.00
10310;BME280;5200;43.236;27.986;2022-12-10T08:02:36;99347.53;;;14.27;100.00
10310;BME280;5200;43.236;27.986;2022-12-10T08:05:04;99358.34;;;14.41;100.00
10310;BME280;5200;43.236;27.986;2022-12-10T08:07:32;99356.81;;;14.46;100.00
10310;BME280;5200;43.236;27.986;2022-12-10T08:09:59;99364.84;;;14.61;100.00
10310;BME280;5200;43.236;27.986;2022-12-10T08:12:26;99341.22;;;14.51;100.00
10310;BME280;5200;43.236;27.986;2022-12-10T08:14:52;99361.75;;;14.72;100.00
10310;BME280;5200;43.236;27.986;2022-12-10T08:17:21;99355.72;;;14.78;100.00
10310;BME280;5200;43.236;27.986;2022-12-10T08:19:48;99337.72;;;14.74;100.00
10310;BME280;5200;43.236;27.986;2022-12-10T08:22:16;99343.13;;;14.80;100.00
10310;BME280;5200;43.236;27.986;2022-12-10T08:24:42;99347.72;;;14.87;100.00
10310;BME280;5200;43.236;27.986;2022-12-10T08:27:09;99343.06;;;14.89;100.00
10310;BME280;5200;43.236;27.986;2022-12-10T08:29:36;99341.78;;;14.85;100.00
10310;BME280;5200;43.236;27.986;2022-12-10T08:32:03;99344.69;;;14.90;100.00
10310;BME280;5200;43.236;27.986;2022-12-10T08:34:31;99347.97;;;14.92;100.00
10310;BME280;5200;43.236;27.986;2022-12-10T08:36:58;99342.69;;;14.92;100.00
10310;BME280;5200;43.236;27.986;2022-12-10T08:39:25;99338.03;;;14.94;100.00
10310;BME280;5200;43.236;27.986;2022-12-10T08:41:52;99330.72;;;14.96;100.00
10310;BME280;5200;43.236;27.986;2022-12-10T08:44:19;99330.72;;;14.96;100.00
10310;BME280;5200;43.236;27.986;2022-12-10T08:46:46;99322.59;;;14.97;100.00
10310;BME280;5200;43.236;27.986;2022-12-10T08:49:13;99333.28;;;15.04;100.00
10310;BME280;5200;43.236;27.986;2022-12-10T08:51:42;99319.03;;;15.05;100.00
10310;BME280;5200;43.236;27.986;2022-12-10T08:54:09;99316.28;;;15.13;100.00
10310;BME280;5200;43.236;27.986;2022-12-10T08:56:36;99313.91;;;15.18;100.00
10310;BME280;5200;43.236;27.986;2022-12-10T08:59:04;99304.97;;;15.19;100.00
10310;BME280;5200;43.236;27.986;2022-12-10T09:01:31;99308.78;;;15.32;100.00
10310;BME280;5200;43.236;27.986;2022-12-10T09:03:59;99304.63;;;15.44;100.00
10310;BME280;5200;43.236;27.986;2022-12-10T09:06:26;99306.44;;;15.58;100.00
10310;BME280;5200;43.236;27.986;2022-12-10T09:08:54;99284.81;;;15.61;100.00
10310;BME280;5200;43.236;27.986;2022-12-10T09:11:24;99297.31;;;15.82;100.00
10310;BME280;5200;43.236;27.986;2022-12-10T09:13:51;99294.97;;;15.94;100.00
10310;BME280;5200;43.236;27.986;2022-12-10T09:16:18;99291.97;;;15.97;100.00
10310;BME280;5200;43.236;27.986;2022-12-10T09:18:45;99289.19;;;16.05;100.00
10310;BME280;5200;43.236;27.986;2022-12-10T09:21:14;99291.31;;;16.17;100.00
10310;BME280;5200;43.236;27.986;2022-12-10T09:23:41;99298.84;;;16.41;100.00
10310;BME280;5200;43.236;27.986;2022-12-10T09:26:12;99282.78;;;16.49;100.00
10310;BME280;5200;43.236;27.986;2022-12-10T09:28:40;99284.28;;;16.59;100.00
10310;BME280;5200;43.236;27.986;2022-12-10T09:31:08;99279.59;;;16.61;100.00
10310;BME280;5200;43.236;27.986;2022-12-10T09:33:35;99270.47;;;16.70;100.00
10310;BME280;5200;43.236;27.986;2022-12-10T09:36:03;99266.69;;;16.79;100.00
10310;BME280;5200;43.236;27.986;2022-12-10T09:38:30;99265.16;;;16.70;100.00
10310;BME280;5200;43.236;27.986;2022-12-10T09:41:00;99282.31;;;16.74;100.00
10310;BME280;5200;43.236;27.986;2022-12-10T09:43:45;99272.53;;;16.75;100.00
10310;BME280;5200;43.236;27.986;2022-12-10T09:46:21;99266.78;;;16.71;100.00
10310;BME280;5200;43.236;27.986;2022-12-10T09:49:01;99256.78;;;16.73;100.00
10310;BME280;5200;43.236;27.986;2022-12-10T09:51:34;99259.44;;;16.73;100.00
10310;BME280;5200;43.236;27.986;2022-12-10T09:54:04;99255.66;;;16.54;100.00
10310;BME280;5200;43.236;27.986;2022-12-10T09:56:38;99259.28;;;16.46;100.00
10310;BME280;5200;43.236;27.986;2022-12-10T09:59:17;99253.44;;;16.30;100.00
10310;BME280;5200;43.236;27.986;2022-12-10T10:01:46;99256.06;;;16.01;100.00
10310;BME280;5200;43.236;27.986;2022-12-10T10:04:15;99238.66;;;15.71;100.00
10310;BME280;5200;43.236;27.986;2022-12-10T10:06:42;99245.44;;;15.58;100.00
10310;BME280;5200;43.236;27.986;2022-12-10T10:09:11;99230.66;;;15.49;100.00
10310;BME280;5200;43.236;27.986;2022-12-10T10:11:39;99233.38;;;15.56;100.00
10310;BME280;5200;43.236;27.986;2022-12-10T10:14:12;99227.09;;;15.57;100.00
10310;BME280;5200;43.236;27.986;2022-12-10T10:16:44;99222.41;;;15.59;100.00
10310;BME280;5200;43.236;27.986;2022-12-10T10:19:16;99227.44;;;15.54;100.00
10310;BME280;5200;43.236;27.986;2022-12-10T10:21:46;99216.78;;;15.47;100.00
10310;BME280;5200;43.236;27.986;2022-12-10T10:24:15;99212.97;;;15.35;100.00
10310;BME280;5200;43.236;27.986;2022-12-10T10:26:44;99211.72;;;15.31;100.00
10310;BME280;5200;43.236;27.986;2022-12-10T10:29:15;99197.78;;;15.22;100.00
10310;BME280;5200;43.236;27.986;2022-12-10T10:31:43;99207.34;;;15.23;100.00
10310;BME280;5200;43.236;27.986;2022-12-10T10:34:15;99202.75;;;15.32;100.00
10310;BME280;5200;43.236;27.986;2022-12-10T10:36:42;99204.47;;;15.39;100.00
10310;BME280;5200;43.236;27.986;2022-12-10T10:39:18;99182.56;;;15.31;100.00
10310;BME280;5200;43.236;27.986;2022-12-10T10:41:53;99185.09;;;15.17;100.00
10310;BME280;5200;43.236;27.986;2022-12-10T10:44:23;99175.59;;;15.08;100.00
10310;BME280;5200;43.236;27.986;2022-12-10T10:46:53;99184.53;;;15.07;100.00
10310;BME280;5200;43.236;27.986;2022-12-10T10:49:23;99164.47;;;14.98;100.00
10310;BME280;5200;43.236;27.986;2022-12-10T10:51:51;99178.50;;;15.13;100.00
10310;BME280;5200;43.236;27.986;2022-12-10T10:54:38;99179.09;;;15.30;100.00
10310;BME280;5200;43.236;27.986;2022-12-10T10:57:11;99175.50;;;15.38;100.00
10310;BME280;5200;43.236;27.986;2022-12-10T10:59:40;99185.28;;;15.59;100.00
10310;BME280;5200;43.236;27.986;2022-12-10T11:02:17;99175.88;;;15.78;100.00
10310;BME280;5200;43.236;27.986;2022-12-10T11:04:47;99167.41;;;15.89;100.00
10310;BME280;5200;43.236;27.986;2022-12-10T11:07:20;99167.06;;;15.99;100.00
10310;BME280;5200;43.236;27.986;2022-12-10T11:09:49;99165.09;;;16.08;100.00
10310;BME280;5200;43.236;27.986;2022-12-10T11:12:37;99154.50;;;16.08;100.00
10310;BME280;5200;43.236;27.986;2022-12-10T11:15:32;99149.66;;;16.18;100.00
10310;BME280;5200;43.236;27.986;2022-12-10T11:17:59;99170.75;;;16.26;100.00
10310;BME280;5200;43.236;27.986;2022-12-10T11:20:29;99157.13;;;16.36;100.00
10310;BME280;5200;43.236;27.986;2022-12-10T11:22:57;99162.53;;;16.56;100.00
10310;BME280;5200;43.236;27.986;2022-12-10T11:25:34;99168.31;;;16.66;100.00
10310;BME280;5200;43.236;27.986;2022-12-10T11:28:12;99160.38;;;16.73;100.00
10310;BME280;5200;43.236;27.986;2022-12-10T11:30:48;99158.03;;;16.56;100.00
10310;BME280;5200;43.236;27.986;2022-12-10T11:33:23;99151.66;;;16.44;100.00
10310;BME280;5200;43.236;27.986;2022-12-10T11:36:00;99150.91;;;16.22;100.00
10310;BME280;5200;43.236;27.986;2022-12-10T11:38:32;99140.25;;;16.15;100.00
10310;BME280;5200;43.236;27.986;2022-12-10T11:41:10;99141.00;;;16.02;100.00
10310;BME280;5200;43.236;27.986;2022-12-10T11:43:57;99136.84;;;15.93;100.00
10310;BME280;5200;43.236;27.986;2022-12-10T11:46:49;99140.06;;;15.89;100.00
10310;BME280;5200;43.236;27.986;2022-12-10T11:49:25;99131.94;;;15.90;100.00
10310;BME280;5200;43.236;27.986;2022-12-10T11:52:03;99123.34;;;15.88;100.00
10310;BME280;5200;43.236;27.986;2022-12-10T11:54:51;99119.75;;;16.02;100.00
10310;BME280;5200;43.236;27.986;2022-12-10T11:57:27;99123.97;;;16.25;100.00
10310;BME280;5200;43.236;27.986;2022-12-10T12:00:00;99121.78;;;16.35;100.00
10310;BME280;5200;43.236;27.986;2022-12-10T12:02:55;99121.16;;;16.33;100.00
10310;BME280;5200;43.236;27.986;2022-12-10T12:05:39;99105.78;;;16.22;100.00
10310;BME280;5200;43.236;27.986;2022-12-10T12:08:18;99120.25;;;16.19;100.00
10310;BME280;5200;43.236;27.986;2022-12-10T12:11:00;99130.38;;;16.02;100.00
10310;BME280;5200;43.236;27.986;2022-12-10T12:13:32;99127.63;;;15.89;100.00
10310;BME280;5200;43.236;27.986;2022-12-10T12:16:02;99124.25;;;15.74;100.00
10310;BME280;5200;43.236;27.986;2022-12-10T12:18:41;99141.22;;;15.58;100.00
10310;BME280;5200;43.236;27.986;2022-12-10T12:21:13;99134.81;;;15.46;100.00
10310;BME280;5200;43.236;27.986;2022-12-10T12:23:46;99136.19;;;15.41;100.00
10310;BME280;5200;43.236;27.986;2022-12-10T12:26:21;99130.00;;;15.34;100.00
10310;BME280;5200;43.236;27.986;2022-12-10T12:28:54;99142.31;;;15.20;100.00
10310;BME280;5200;43.236;27.986;2022-12-10T12:31:26;99146.84;;;15.05;100.00
10310;BME280;5200;43.236;27.986;2022-12-10T12:34:00;99144.47;;;14.95;100.00
10310;BME280;5200;43.236;27.986;2022-12-10T12:36:31;99138.84;;;14.84;100.00
10310;BME280;5200;43.236;27.986;2022-12-10T12:39:03;99130.84;;;14.77;100.00
10310;BME280;5200;43.236;27.986;2022-12-10T12:41:37;99121.81;;;14.71;100.00
10310;BME280;5200;43.236;27.986;2022-12-10T12:44:11;99113.41;;;14.53;100.00
10310;BME280;5200;43.236;27.986;2022-12-10T12:46:43;99116.38;;;14.58;100.00
10310;BME280;5200;43.236;27.986;2022-12-10T12:49:16;99104.75;;;14.44;100.00
10310;BME280;5200;43.236;27.986;2022-12-10T12:51:51;99102.38;;;14.34;100.00
10310;BME280;5200;43.236;27.986;2022-12-10T12:54:19;99106.16;;;14.25;100.00
10310;BME280;5200;43.236;27.986;2022-12-10T12:56:58;99100.75;;;14.19;100.00
10310;BME280;5200;43.236;27.986;2022-12-10T12:59:35;99095.75;;;14.09;100.00
10310;BME280;5200;43.236;27.986;2022-12-10T13:02:16;99094.84;;;14.02;100.00
10310;BME280;5200;43.236;27.986;2022-12-10T13:04:45;99078.03;;;13.94;100.00
10310;BME280;5200;43.236;27.986;2022-12-10T13:07:30;99081.69;;;13.93;100.00